Terminal Aerodrome Forecast
Issued by NWS Charleston, WV

Current Version | Previous Version | Text Only | Print | Product List | Glossary Off
Versions: 1 2 3 4 5 6 7 8 9 10 11 12 13 14 15 16 17 18 19 20 21 22 23 24 25 26 27 28

000
FTUS41 KRLX 250500
TAFCRW
TAF
KCRW 250520Z 2506/2606 25011G21KT P6SM OVC015
     FM251400 25010G15KT P6SM OVC035
     FM251700 24008KT P6SM BKN035
     FM252300 VRB03KT P6SM SCT045
     FM260200 00000KT P6SM SCT200=

USA.gov is the U.S. government's official web portal to all federal, state and local government web resources and services.